la Seu d'Urgell, Spain
Current Conditions -  °F | °C
As of 2:00 PM on Wednesday 26 Nov 2014 (Local Time) from LELL Reporting Station
Scattered Clouds Scattered Clouds  
Wind Chill: 16°   Ceiling: Unl
Heat Index: 16°   Visibility: 6mi
Dew Point: 14°   Wind: 1mph
Humidity: 88%   Direction: NA
Pressure: 29.83"   Gusts: NA
Location:  42.36°N, 1.46°E
Report Text: LELL 261300Z VRB01KT 9999 FEW010 SCT080 16/14 Q1010
Loading
Personal Weather Stations






























Interactive Weather Map New forecast layout! Learn more

10-Day Weather Forecast

Advertisements
Track Severe Weather on mobile